Time;durP1;ratioP1;P1;durP2;ratioP2;P2;SDS_P1;SDS_P2;PMS_P1;PMS_P2;Temp;Humidity;BMP_temperature;BMP_pressure;BME280_temperature;BME280_humidity;BME280_pressure;Samples;Min_cycle;Max_cycle;Signal;HPM_P1;HPM_P2
2023/08/26 00:01:13;;;;;;;18.90;11.50;;;;;;;21.59;76.68;100026.48;111105;1206;98858;-69
2023/08/26 00:03:38;;;;;;;19.30;11.00;;;;;;;21.56;76.89;100025.56;111175;1209;97607;-69
2023/08/26 00:06:03;;;;;;;15.90;10.40;;;;;;;21.56;76.96;100033.43;111081;1210;139582;-69
2023/08/26 00:08:28;;;;;;;13.90;11.00;;;;;;;21.55;77.14;100035.39;111217;1212;97571;-69
2023/08/26 00:10:54;;;;;;;14.40;9.40;;;;;;;21.53;77.22;100037.52;111056;1211;139380;-69
2023/08/26 00:13:19;;;;;;;15.50;11.00;;;;;;;21.50;77.15;100041.52;111275;1206;97752;-69
2023/08/26 00:15:44;;;;;;;17.40;10.00;;;;;;;21.47;77.50;100040.88;111174;1208;96204;-69
2023/08/26 00:18:11;;;;;;;13.20;9.90;;;;;;;21.45;77.49;100041.09;110987;1212;139363;-69
2023/08/26 00:20:38;;;;;;;17.40;9.80;;;;;;;21.42;77.72;100046.30;111220;1209;96698;-69
2023/08/26 00:23:03;;;;;;;13.80;9.80;;;;;;;21.39;77.87;100048.78;111095;1208;139649;-69
2023/08/26 00:25:29;;;;;;;14.00;9.80;;;;;;;21.37;78.12;100051.34;111135;1212;97569;-69
2023/08/26 00:27:55;;;;;;;14.20;9.30;;;;;;;21.34;78.09;100054.65;111239;1209;96178;-69
2023/08/26 00:30:20;;;;;;;14.90;9.50;;;;;;;21.32;78.22;100058.51;111039;1209;139050;-69
2023/08/26 00:32:45;;;;;;;14.20;9.50;;;;;;;21.30;78.25;100055.64;111065;1209;97624;-69
2023/08/26 00:35:11;;;;;;;11.00;9.00;;;;;;;21.27;78.49;100061.70;111081;1209;139835;-68
2023/08/26 00:37:36;;;;;;;12.40;9.10;;;;;;;21.25;78.54;100063.14;111132;1209;97620;-68
2023/08/26 00:40:02;;;;;;;12.50;8.30;;;;;;;21.24;78.75;100060.80;111239;1209;99650;-68
2023/08/26 00:42:27;;;;;;;13.50;9.40;;;;;;;21.20;78.81;100057.35;111048;1209;138689;-69
2023/08/26 00:44:52;;;;;;;15.50;8.50;;;;;;;21.16;79.06;100059.54;111170;1210;97694;-69
2023/08/26 00:47:18;;;;;;;12.20;8.70;;;;;;;21.13;79.14;100046.87;111095;1209;139803;-68
2023/08/26 00:49:43;;;;;;;13.60;9.20;;;;;;;21.12;79.23;100045.04;111133;1212;98052;-68
2023/08/26 00:52:09;;;;;;;14.40;8.80;;;;;;;21.10;79.51;100044.30;111130;1211;138790;-67
2023/08/26 00:54:35;;;;;;;15.20;9.20;;;;;;;21.09;79.64;100045.13;111145;1212;97620;-69
2023/08/26 00:57:04;;;;;;;12.70;8.80;;;;;;;21.08;79.60;100044.16;111330;1209;97690;-68
2023/08/26 00:59:29;;;;;;;14.10;8.70;;;;;;;21.07;79.68;100050.95;111080;1208;139573;-68
2023/08/26 01:01:55;;;;;;;14.30;8.80;;;;;;;21.04;79.78;100061.58;111239;1210;99256;-69
2023/08/26 01:04:20;;;;;;;16.90;9.80;;;;;;;21.01;80.04;100066.77;111087;1209;138785;-69
2023/08/26 01:06:46;;;;;;;12.60;8.90;;;;;;;20.97;80.09;100068.42;111210;1209;97617;-69
2023/08/26 01:09:11;;;;;;;13.10;8.20;;;;;;;20.94;80.19;100067.62;111193;1206;97678;-69
2023/08/26 01:11:41;;;;;;;12.00;8.30;;;;;;;20.93;80.35;100066.27;111015;1212;138478;-69
2023/08/26 01:14:33;;;;;;;13.60;8.60;;;;;;;20.92;80.50;100068.04;111189;1209;98221;-69
2023/08/26 01:17:00;;;;;;;16.50;8.50;;;;;;;20.89;80.68;100072.28;111086;1207;138804;-69
2023/08/26 01:19:36;;;;;;;15.10;8.70;;;;;;;20.88;80.70;100073.14;111110;1212;97623;-69
2023/08/26 01:22:07;;;;;;;12.50;8.20;;;;;;;20.87;80.65;100069.10;111128;1210;97591;-69
2023/08/26 01:24:34;;;;;;;13.40;8.00;;;;;;;20.85;80.69;100068.19;111132;1209;99358;-69
2023/08/26 01:27:00;;;;;;;15.30;8.10;;;;;;;20.84;80.90;100068.83;111170;1212;97667;-69
2023/08/26 01:29:25;;;;;;;13.80;7.40;;;;;;;20.83;80.85;100067.67;111020;1206;140224;-68
2023/08/26 01:32:15;;;;;;;11.30;7.70;;;;;;;20.81;81.04;100069.98;111161;1209;97773;-69
2023/08/26 01:34:45;;;;;;;11.20;8.10;;;;;;;20.82;81.05;100062.52;110888;1211;139704;-69
2023/08/26 01:37:11;;;;;;;14.40;8.10;;;;;;;20.82;81.10;100059.39;111276;1208;97601;-69
2023/08/26 01:39:37;;;;;;;14.60;7.60;;;;;;;20.82;81.13;100059.04;111104;1209;97560;-69
2023/08/26 01:42:04;;;;;;;10.90;8.00;;;;;;;20.80;81.17;100056.99;111151;1209;139326;-69
2023/08/26 01:44:30;;;;;;;11.60;7.20;;;;;;;20.80;81.01;100062.99;111175;1212;97680;-68
2023/08/26 01:46:56;;;;;;;17.20;7.60;;;;;;;20.79;81.16;100062.80;111006;1210;140525;-69
2023/08/26 01:49:22;;;;;;;11.60;8.00;;;;;;;20.78;81.14;100061.77;111107;1209;95118;-68
2023/08/26 01:51:48;;;;;;;12.60;7.20;;;;;;;20.77;81.17;100060.04;111154;1206;97588;-68
2023/08/26 01:54:13;;;;;;;13.60;8.20;;;;;;;20.76;81.12;100052.36;111032;1208;140896;-68
2023/08/26 01:56:38;;;;;;;10.70;7.60;;;;;;;20.75;81.22;100044.65;111064;1209;97693;-68
2023/08/26 01:59:03;;;;;;;14.30;7.90;;;;;;;20.73;81.10;100046.62;111120;1209;139744;-68
2023/08/26 02:01:29;;;;;;;13.00;8.30;;;;;;;20.70;81.15;100048.69;111146;1209;97720;-68
2023/08/26 02:03:54;;;;;;;10.80;7.90;;;;;;;20.68;81.18;100045.96;111170;1208;97632;-68
2023/08/26 02:06:19;;;;;;;13.30;7.40;;;;;;;20.65;81.13;100044.84;111069;1209;140568;-68
2023/08/26 02:08:47;;;;;;;10.20;7.20;;;;;;;20.62;81.25;100039.13;111168;1207;97669;-68
2023/08/26 02:11:12;;;;;;;14.00;8.10;;;;;;;20.60;81.22;100049.54;111092;1208;139157;-69
2023/08/26 02:13:37;;;;;;;10.60;7.60;;;;;;;20.56;81.23;100052.95;111053;1212;97801;-69
2023/08/26 02:16:02;;;;;;;11.30;7.30;;;;;;;20.52;81.30;100049.00;111141;1212;97564;-68
2023/08/26 02:18:28;;;;;;;10.90;7.90;;;;;;;20.49;81.42;100057.29;111087;1209;139039;-68
2023/08/26 02:20:53;;;;;;;11.20;7.40;;;;;;;20.46;81.44;100058.32;111148;1209;97640;-68
2023/08/26 02:23:18;;;;;;;13.00;7.80;;;;;;;20.44;81.57;100059.60;111026;1211;140263;-69
2023/08/26 02:25:43;;;;;;;8.90;7.40;;;;;;;20.44;81.64;100063.41;111215;1209;98440;-68
2023/08/26 02:28:09;;;;;;;15.00;7.60;;;;;;;20.42;81.61;100063.39;111061;1212;139980;-67
2023/08/26 02:30:34;;;;;;;14.10;7.90;;;;;;;20.39;81.57;100058.89;111156;1208;97597;-68
2023/08/26 02:33:02;;;;;;;9.50;7.40;;;;;;;20.38;81.74;100059.39;111214;1208;97703;-68
2023/08/26 02:35:28;;;;;;;13.00;7.30;;;;;;;20.36;81.77;100051.75;111169;1211;139173;-68
2023/08/26 02:37:53;;;;;;;15.30;7.60;;;;;;;20.36;81.77;100059.14;111211;1207;97760;-68
2023/08/26 02:40:18;;;;;;;14.20;8.00;;;;;;;20.35;81.83;100065.98;111033;1206;139384;-68
2023/08/26 02:42:43;;;;;;;13.00;8.00;;;;;;;20.32;81.93;100066.93;111196;1209;97694;-68
2023/08/26 02:45:09;;;;;;;15.20;7.60;;;;;;;20.30;81.97;100071.35;111189;1212;98160;-68
2023/08/26 02:47:34;;;;;;;13.90;7.40;;;;;;;20.27;81.92;100078.85;111081;1208;140891;-68
2023/08/26 02:50:01;;;;;;;10.70;7.60;;;;;;;20.24;81.91;100078.77;111215;1212;97655;-68
2023/08/26 02:52:26;;;;;;;12.70;7.10;;;;;;;20.22;81.98;100079.54;111026;1212;140152;-69
2023/08/26 02:54:51;;;;;;;11.70;7.20;;;;;;;20.19;81.89;100072.91;111202;1212;97581;-69
2023/08/26 02:57:17;;;;;;;10.20;7.50;;;;;;;20.13;81.76;100070.24;111228;1208;97671;-68
2023/08/26 02:59:43;;;;;;;10.90;7.70;;;;;;;20.07;81.99;100066.77;110983;1209;139274;-68
2023/08/26 03:02:09;;;;;;;13.70;7.80;;;;;;;20.05;82.26;100064.80;111299;1208;97746;-68
2023/08/26 03:04:34;;;;;;;9.90;7.10;;;;;;;20.04;82.30;100067.09;110917;1210;139033;-68
2023/08/26 03:07:00;;;;;;;16.70;7.70;;;;;;;20.01;82.34;100064.78;111156;1212;97592;-68
2023/08/26 03:09:29;;;;;;;10.00;6.80;;;;;;;19.99;82.39;100058.65;111191;1209;97597;-68
2023/08/26 03:11:58;;;;;;;9.30;7.10;;;;;;;19.97;82.46;100053.75;111112;1209;138727;-68
2023/08/26 03:14:24;;;;;;;8.10;6.50;;;;;;;19.97;82.51;100054.64;111100;1212;100006;-68
2023/08/26 03:16:49;;;;;;;12.20;7.30;;;;;;;19.96;82.57;100050.42;110993;1208;139037;-68
2023/08/26 03:19:14;;;;;;;14.20;7.00;;;;;;;19.94;82.52;100044.56;111165;1209;97693;-68
2023/08/26 03:21:39;;;;;;;9.90;6.50;;;;;;;19.93;82.57;100048.33;111088;1211;97714;-68
2023/08/26 03:24:05;;;;;;;8.70;6.00;;;;;;;19.93;82.65;100057.21;111122;1211;139453;-68
2023/08/26 03:26:31;;;;;;;15.90;6.90;;;;;;;19.92;82.62;100054.92;111168;1209;97714;-68
2023/08/26 03:28:56;;;;;;;8.30;6.00;;;;;;;19.91;82.61;100051.09;111007;1208;139588;-68
2023/08/26 03:31:21;;;;;;;10.00;6.60;;;;;;;19.91;82.62;100046.35;111272;1209;97665;-68
2023/08/26 03:33:46;;;;;;;15.20;6.90;;;;;;;19.90;82.55;100043.92;111155;1212;97677;-68
2023/08/26 03:36:12;;;;;;;9.50;6.20;;;;;;;19.91;82.66;100040.92;111140;1206;139320;-68
2023/08/26 03:38:37;;;;;;;14.60;6.50;;;;;;;19.91;82.66;100034.70;111139;1212;97693;-68
2023/08/26 03:41:03;;;;;;;9.20;6.10;;;;;;;19.92;82.75;100040.09;111072;1206;139917;-68
2023/08/26 03:43:29;;;;;;;12.80;6.00;;;;;;;19.93;82.72;100042.84;111200;1208;97647;-69
2023/08/26 03:45:54;;;;;;;10.50;6.10;;;;;;;19.93;82.69;100045.02;111162;1208;97601;-68
2023/08/26 03:48:19;;;;;;;8.70;6.40;;;;;;;19.94;82.72;100050.39;111091;1210;140191;-68
2023/08/26 03:50:55;;;;;;;13.10;6.70;;;;;;;19.94;82.62;100049.88;111169;1207;99126;-68
2023/08/26 03:53:21;;;;;;;10.90;6.60;;;;;;;19.92;82.72;100049.65;110862;1212;140203;-68
2023/08/26 03:55:46;;;;;;;11.70;7.60;;;;;;;19.93;82.80;100050.34;111159;1208;96899;-68
2023/08/26 03:58:12;;;;;;;18.10;8.00;;;;;;;19.94;82.88;100044.81;111063;1207;140918;-67
2023/08/26 04:00:38;;;;;;;14.40;8.10;;;;;;;19.94;82.88;100038.63;111035;1211;97735;-68
2023/08/26 04:03:05;;;;;;;11.70;7.50;;;;;;;19.91;82.83;100048.48;111173;1209;97763;-68
2023/08/26 04:05:31;;;;;;;12.50;7.40;;;;;;;19.88;82.84;100046.29;111202;1209;138648;-68
2023/08/26 04:07:56;;;;;;;12.00;6.70;;;;;;;19.84;82.76;100046.98;111170;1206;99393;-68
2023/08/26 04:10:22;;;;;;;12.80;7.90;;;;;;;19.81;82.75;100050.35;111054;1209;139269;-67
2023/08/26 04:12:47;;;;;;;11.50;8.00;;;;;;;19.77;82.94;100046.84;111260;1211;98192;-68
2023/08/26 04:15:12;;;;;;;13.10;7.80;;;;;;;19.76;83.22;100042.72;111117;1211;97676;-68
2023/08/26 04:17:40;;;;;;;11.70;6.80;;;;;;;19.77;83.17;100040.37;111062;1209;138464;-68
2023/08/26 04:20:07;;;;;;;9.30;7.30;;;;;;;19.76;83.22;100030.23;111198;1210;97616;-68
2023/08/26 04:22:32;;;;;;;11.20;7.70;;;;;;;19.77;83.35;100029.20;111194;1210;139707;-68
2023/08/26 04:24:57;;;;;;;13.20;8.50;;;;;;;19.79;83.28;100031.45;111241;1209;97676;-69
2023/08/26 04:27:22;;;;;;;12.90;7.40;;;;;;;19.77;83.12;100032.90;111144;1206;98023;-68
2023/08/26 04:29:47;;;;;;;13.20;8.40;;;;;;;19.73;83.36;100029.95;111135;1207;139258;-68
2023/08/26 04:32:13;;;;;;;12.60;7.00;;;;;;;19.75;83.47;100039.83;111182;1209;97600;-68
2023/08/26 04:34:38;;;;;;;13.40;7.10;;;;;;;19.76;83.62;100046.23;111041;1211;139546;-67
2023/08/26 04:37:03;;;;;;;7.80;7.00;;;;;;;19.76;83.58;100044.46;111161;1208;97695;-68
2023/08/26 04:39:29;;;;;;;12.20;6.90;;;;;;;19.74;83.58;100043.71;111121;1211;97700;-68
2023/08/26 04:41:54;;;;;;;11.00;6.60;;;;;;;19.72;83.58;100044.59;111086;1211;139594;-68
2023/08/26 04:44:19;;;;;;;12.70;6.50;;;;;;;19.71;83.69;100047.23;111065;1211;98042;-68
2023/08/26 04:46:45;;;;;;;13.00;6.30;;;;;;;19.72;83.73;100049.64;110960;1206;140214;-68
2023/08/26 04:49:10;;;;;;;12.10;5.50;;;;;;;19.74;83.84;100052.41;111243;1210;97606;-67
2023/08/26 04:51:37;;;;;;;7.60;5.40;;;;;;;19.76;83.86;100056.55;111100;1208;97591;-68
2023/08/26 04:54:03;;;;;;;12.40;6.00;;;;;;;19.79;83.96;100057.61;111049;1209;140716;-68
2023/08/26 04:56:28;;;;;;;8.10;5.70;;;;;;;19.83;84.02;100056.90;111207;1211;97642;-68
2023/08/26 04:58:53;;;;;;;8.10;5.20;;;;;;;19.87;84.13;100057.58;111087;1210;138931;-67
2023/08/26 05:01:18;;;;;;;10.70;5.20;;;;;;;19.93;84.15;100057.14;111138;1207;97537;-68
2023/08/26 05:03:44;;;;;;;5.80;4.60;;;;;;;20.02;84.21;100054.05;111177;1210;97665;-68
2023/08/26 05:06:09;;;;;;;15.20;5.60;;;;;;;20.11;84.28;100043.02;111051;1206;138544;-67
2023/08/26 05:08:34;;;;;;;7.70;5.40;;;;;;;20.20;84.10;100046.19;111113;1208;97715;-68
2023/08/26 05:10:59;;;;;;;7.90;5.10;;;;;;;20.24;84.00;100047.73;110911;1207;139674;-67
2023/08/26 05:13:25;;;;;;;11.30;4.60;;;;;;;20.29;83.99;100048.80;111042;1206;97698;-67
2023/08/26 05:15:50;;;;;;;8.80;5.20;;;;;;;20.31;83.93;100045.83;111086;1210;98016;-68
2023/08/26 05:18:16;;;;;;;7.90;4.60;;;;;;;20.35;83.82;100051.84;110989;1206;138663;-68
2023/08/26 05:20:47;;;;;;;8.00;4.80;;;;;;;20.37;83.69;100056.91;110986;1211;97653;-68
2023/08/26 05:23:14;;;;;;;10.40;5.40;;;;;;;20.37;83.64;100054.02;110985;1209;140726;-67
2023/08/26 05:25:40;;;;;;;7.20;5.00;;;;;;;20.36;83.58;100052.09;111140;1211;98381;-68
2023/08/26 05:28:06;;;;;;;9.20;4.90;;;;;;;20.37;83.63;100052.88;111125;1209;97694;-68
2023/08/26 05:30:32;;;;;;;9.90;5.30;;;;;;;20.42;83.51;100053.04;111035;1212;139186;-67
2023/08/26 05:32:57;;;;;;;11.10;5.30;;;;;;;20.45;83.46;100048.40;111095;1211;106202;-67
2023/08/26 05:35:23;;;;;;;16.90;5.20;;;;;;;20.50;83.45;100043.52;111010;1212;140075;-68
2023/08/26 05:37:48;;;;;;;9.30;4.80;;;;;;;20.55;83.31;100041.09;111104;1211;96148;-67
2023/08/26 05:40:15;;;;;;;11.30;4.50;;;;;;;20.60;83.27;100037.17;110904;1208;139380;-65
2023/08/26 05:42:40;;;;;;;14.40;4.20;;;;;;;20.65;83.17;100037.81;111171;1207;97608;-65
2023/08/26 05:45:06;;;;;;;6.10;4.30;;;;;;;20.73;83.15;100039.00;111165;1209;97741;-65
2023/08/26 05:47:31;;;;;;;11.90;4.50;;;;;;;20.80;83.03;100045.25;110908;1208;138460;-65
2023/08/26 05:50:00;;;;;;;12.50;4.40;;;;;;;20.86;83.01;100050.61;111131;1209;97684;-65
2023/08/26 05:52:25;;;;;;;8.60;3.70;;;;;;;20.91;82.80;100043.00;110919;1211;140657;-65
2023/08/26 05:54:51;;;;;;;10.90;4.50;;;;;;;20.96;82.81;100045.14;111134;1207;97744;-65
2023/08/26 05:57:16;;;;;;;10.90;4.10;;;;;;;21.01;82.68;100047.88;111034;1211;97680;-65
2023/08/26 05:59:41;;;;;;;7.70;4.00;;;;;;;21.07;82.59;100051.81;110922;1208;140233;-65
2023/08/26 06:02:08;;;;;;;10.70;3.80;;;;;;;21.13;82.54;100047.61;111103;1211;97680;-65
2023/08/26 06:04:33;;;;;;;9.10;3.70;;;;;;;21.20;82.38;100054.59;111015;1210;140347;-65
2023/08/26 06:06:58;;;;;;;10.30;3.30;;;;;;;21.30;82.38;100057.83;111131;1209;97687;-65
2023/08/26 06:09:24;;;;;;;12.70;4.10;;;;;;;21.37;82.11;100059.15;111198;1209;97674;-66
2023/08/26 06:11:50;;;;;;;13.30;4.70;;;;;;;21.43;81.99;100064.38;110983;1209;138591;-65
2023/08/26 06:14:15;;;;;;;17.60;4.60;;;;;;;21.50;81.83;100070.80;111187;1206;96175;-65
2023/08/26 06:16:40;;;;;;;11.70;4.60;;;;;;;21.57;81.65;100079.52;110899;1211;139139;-65
2023/08/26 06:19:06;;;;;;;13.90;4.30;;;;;;;21.64;81.38;100083.71;111040;1209;97665;-65
2023/08/26 06:21:31;;;;;;;6.80;4.00;;;;;;;21.70;81.33;100084.44;111157;1209;99219;-65
2023/08/26 06:23:56;;;;;;;8.20;4.40;;;;;;;21.73;81.06;100095.24;110951;1208;140621;-65
2023/08/26 06:26:21;;;;;;;5.80;3.10;;;;;;;21.72;80.88;100102.95;111171;1209;95900;-65
2023/08/26 06:28:47;;;;;;;6.50;3.10;;;;;;;21.74;80.62;100111.52;110972;1209;138525;-65
2023/08/26 06:31:12;;;;;;;9.70;4.00;;;;;;;21.80;80.46;100114.23;111152;1208;96171;-64
2023/08/26 06:33:37;;;;;;;7.50;3.50;;;;;;;21.86;80.36;100109.94;111050;1211;97601;-65
2023/08/26 06:36:04;;;;;;;10.70;3.90;;;;;;;21.92;80.24;100115.10;110930;1209;139990;-65
2023/08/26 06:38:30;;;;;;;10.80;3.80;;;;;;;22.01;80.15;100117.91;111241;1209;97651;-64
2023/08/26 06:40:58;;;;;;;13.80;4.20;;;;;;;22.08;79.89;100122.54;111035;1211;140547;-65
2023/08/26 06:43:24;;;;;;;6.80;3.60;;;;;;;22.14;79.67;100129.69;111141;1209;97700;-66
2023/08/26 06:45:49;;;;;;;7.40;3.60;;;;;;;22.20;79.36;100129.08;111119;1211;97711;-64
2023/08/26 06:48:16;;;;;;;6.00;3.50;;;;;;;22.25;79.29;100129.30;111118;1208;140084;-64
2023/08/26 06:50:41;;;;;;;11.90;3.70;;;;;;;22.27;78.81;100136.41;111090;1209;97581;-66
2023/08/26 06:53:07;;;;;;;8.60;3.60;;;;;;;22.27;78.61;100142.08;110956;1208;138655;-66
2023/08/26 06:55:32;;;;;;;6.40;3.70;;;;;;;22.24;78.21;100136.17;110976;1211;97556;-65
2023/08/26 06:57:58;;;;;;;8.00;3.80;;;;;;;22.27;78.31;100142.02;110972;1208;95442;-68
2023/08/26 07:00:23;;;;;;;7.60;3.40;;;;;;;22.28;77.97;100143.56;110915;1209;138111;-68
2023/08/26 07:02:48;;;;;;;6.60;3.60;;;;;;;22.32;78.08;100151.50;111085;1208;97688;-69
2023/08/26 07:05:14;;;;;;;6.60;3.60;;;;;;;22.38;77.86;100155.20;110955;1210;140541;-67
2023/08/26 07:07:39;;;;;;;10.00;3.50;;;;;;;22.43;77.76;100155.53;111039;1209;97694;-66
2023/08/26 07:10:05;;;;;;;5.90;3.40;;;;;;;22.51;77.56;100159.85;111034;1211;97649;-66
2023/08/26 07:12:31;;;;;;;5.40;3.80;;;;;;;22.59;77.43;100158.50;112594;1209;138843;-64
2023/08/26 07:14:57;;;;;;;8.10;4.10;;;;;;;22.64;77.24;100161.79;111227;1206;97354;-64
2023/08/26 07:17:22;;;;;;;7.30;3.30;;;;;;;22.70;77.05;100163.97;111008;1211;139043;-64
2023/08/26 07:19:47;;;;;;;10.00;3.70;;;;;;;22.75;77.30;100163.45;111255;1208;97585;-64
2023/08/26 07:22:13;;;;;;;9.20;3.80;;;;;;;22.84;76.93;100171.56;111182;1209;139222;-64
2023/08/26 07:24:38;;;;;;;11.00;3.90;;;;;;;22.88;76.41;100175.36;111089;1211;97592;-65
2023/08/26 07:27:04;;;;;;;6.10;3.80;;;;;;;22.89;76.33;100175.48;111240;1209;97617;-65
2023/08/26 07:29:34;;;;;;;8.70;3.90;;;;;;;22.90;76.47;100167.52;111112;1211;139077;-65
2023/08/26 07:31:59;;;;;;;8.90;3.70;;;;;;;22.96;76.12;100169.96;111190;1211;97972;-65
2023/08/26 07:34:24;;;;;;;7.90;3.70;;;;;;;22.98;75.82;100169.73;110998;1211;138931;-64
2023/08/26 07:36:50;;;;;;;8.20;4.20;;;;;;;22.97;75.83;100170.60;111273;1207;97644;-63
2023/08/26 07:39:15;;;;;;;7.30;3.80;;;;;;;22.95;75.70;100167.17;111202;1209;97674;-64
2023/08/26 07:41:40;;;;;;;8.60;4.60;;;;;;;22.95;75.54;100171.76;111038;1210;138847;-65
2023/08/26 07:44:05;;;;;;;14.50;4.80;;;;;;;22.96;75.53;100176.23;111171;1207;97679;-65
2023/08/26 07:46:31;;;;;;;15.10;4.40;;;;;;;22.98;75.56;100178.14;111068;1206;139201;-64
2023/08/26 07:48:56;;;;;;;13.00;4.80;;;;;;;22.94;75.20;100180.59;111122;1208;97575;-64
2023/08/26 07:51:22;;;;;;;5.80;4.20;;;;;;;22.90;75.25;100178.27;111094;1208;97553;-65
2023/08/26 07:53:47;;;;;;;14.20;4.10;;;;;;;22.90;74.99;100177.20;111109;1211;139920;-65
2023/08/26 07:56:12;;;;;;;12.90;4.80;;;;;;;22.89;75.03;100175.29;111112;1208;97699;-65
2023/08/26 07:58:37;;;;;;;6.90;4.30;;;;;;;22.91;75.19;100185.89;111029;1210;138669;-66
2023/08/26 08:01:03;;;;;;;8.40;4.30;;;;;;;22.91;75.14;100187.27;111101;1208;97577;-65
2023/08/26 08:03:28;;;;;;;5.80;3.90;;;;;;;22.93;74.82;100184.14;111135;1210;97577;-65
2023/08/26 08:05:53;;;;;;;12.10;4.10;;;;;;;22.97;75.03;100178.30;111084;1208;138472;-65
2023/08/26 08:08:19;;;;;;;6.00;3.90;;;;;;;22.98;74.97;100179.23;111010;1211;97684;-65
2023/08/26 08:10:44;;;;;;;9.80;4.50;;;;;;;23.04;74.88;100176.38;110887;1206;139972;-66
2023/08/26 08:13:12;;;;;;;9.10;4.20;;;;;;;23.07;74.93;100178.79;111096;1211;97575;-66
2023/08/26 08:15:40;;;;;;;9.70;4.80;;;;;;;23.12;74.70;100176.55;111054;1209;97601;-66
2023/08/26 08:18:05;;;;;;;10.70;4.80;;;;;;;23.19;74.86;100173.08;111049;1209;141037;-65
2023/08/26 08:20:30;;;;;;;12.00;4.70;;;;;;;23.27;74.60;100178.08;111157;1211;97584;-66
2023/08/26 08:22:56;;;;;;;11.90;4.60;;;;;;;23.35;74.58;100178.39;111166;1207;139226;-65
2023/08/26 08:25:21;;;;;;;5.50;4.30;;;;;;;23.36;74.59;100162.95;111178;1210;99028;-66
2023/08/26 08:27:46;;;;;;;9.50;4.40;;;;;;;23.43;74.52;100157.06;111125;1209;97645;-66
2023/08/26 08:30:12;;;;;;;6.90;4.30;;;;;;;23.53;74.49;100155.05;111018;1211;138364;-66
2023/08/26 08:32:40;;;;;;;9.00;4.00;;;;;;;23.63;74.42;100154.23;111135;1211;97704;-66
2023/08/26 08:35:06;;;;;;;8.30;4.30;;;;;;;23.71;74.30;100151.98;111066;1209;140574;-66
2023/08/26 08:37:32;;;;;;;6.70;4.50;;;;;;;23.83;74.49;100155.23;111183;1211;96214;-66
2023/08/26 08:39:58;;;;;;;5.90;4.10;;;;;;;23.91;74.33;100159.48;111197;1209;98070;-65
2023/08/26 08:42:25;;;;;;;8.90;5.30;;;;;;;23.97;74.18;100163.95;110985;1208;138256;-65
2023/08/26 08:44:51;;;;;;;10.80;4.20;;;;;;;23.97;74.03;100169.02;111270;1209;98116;-65
2023/08/26 08:47:17;;;;;;;17.10;4.60;;;;;;;24.03;73.75;100174.28;111192;1209;139482;-66
2023/08/26 08:49:46;;;;;;;9.50;4.10;;;;;;;24.06;73.67;100167.84;111143;1208;97632;-66
2023/08/26 08:52:11;;;;;;;12.10;5.00;;;;;;;24.10;73.62;100168.74;111093;1208;139024;-65
2023/08/26 08:54:37;;;;;;;8.20;4.30;;;;;;;24.13;73.45;100172.75;111120;1208;98047;-66
2023/08/26 08:57:04;;;;;;;9.20;4.60;;;;;;;24.11;73.11;100171.86;111100;1209;97780;-66
2023/08/26 08:59:33;;;;;;;9.70;4.30;;;;;;;24.06;72.99;100168.25;111116;1209;140701;-65
2023/08/26 09:01:59;;;;;;;8.20;4.10;;;;;;;24.05;72.93;100169.95;111116;1211;102980;-65
2023/08/26 09:04:25;;;;;;;8.20;4.20;;;;;;;24.05;72.91;100168.72;110913;1209;139908;-65
2023/08/26 09:06:51;;;;;;;11.50;4.50;;;;;;;24.03;73.00;100171.73;111156;1210;97581;-64
2023/08/26 09:09:18;;;;;;;13.20;4.70;;;;;;;24.02;72.92;100177.30;111295;1207;97604;-64
2023/08/26 09:11:43;;;;;;;8.40;4.70;;;;;;;23.99;72.78;100177.55;111098;1209;139053;-64
2023/08/26 09:14:09;;;;;;;13.20;5.40;;;;;;;23.95;72.85;100184.39;111164;1206;97694;-64
2023/08/26 09:16:38;;;;;;;13.80;4.90;;;;;;;23.88;72.71;100190.98;110786;1211;140031;-65
2023/08/26 09:19:08;;;;;;;11.20;5.00;;;;;;;23.83;72.80;100190.23;111076;1211;97571;-66
2023/08/26 09:21:34;;;;;;;12.40;5.20;;;;;;;23.75;72.83;100196.02;111139;1208;103029;-65
2023/08/26 09:24:00;;;;;;;11.80;5.50;;;;;;;23.65;73.18;100200.73;111131;1207;139223;-66
2023/08/26 09:26:26;;;;;;;11.90;6.00;;;;;;;23.51;73.00;100207.11;111208;1211;97684;-65
2023/08/26 09:28:52;;;;;;;7.50;5.00;;;;;;;23.26;73.11;100209.00;111273;1209;140729;-66
2023/08/26 09:31:18;;;;;;;9.50;5.70;;;;;;;23.05;73.49;100212.50;111264;1207;97646;-66
2023/08/26 09:33:59;;;;;;;11.40;5.30;;;;;;;22.92;73.62;100211.02;111273;1211;97652;-65
2023/08/26 09:36:41;;;;;;;11.30;5.30;;;;;;;22.88;73.83;100206.40;110743;1211;138626;-65
2023/08/26 09:39:13;;;;;;;12.90;5.70;;;;;;;22.83;74.27;100202.86;111042;1209;97616;-67
2023/08/26 09:41:43;;;;;;;10.80;5.30;;;;;;;22.77;74.49;100202.23;110999;1208;139099;-65
2023/08/26 09:44:10;;;;;;;10.10;5.50;;;;;;;22.66;74.70;100199.69;111094;1211;103549;-65
2023/08/26 09:46:36;;;;;;;11.20;6.60;;;;;;;22.60;75.21;100199.21;110988;1208;138916;-64
2023/08/26 09:49:03;;;;;;;6.30;5.10;;;;;;;22.55;75.58;100196.63;111112;1208;97707;-64
2023/08/26 09:51:32;;;;;;;12.70;5.60;;;;;;;22.51;75.71;100194.44;110988;1209;97649;-65
2023/08/26 09:53:59;;;;;;;11.80;5.70;;;;;;;22.56;76.00;100192.85;110871;1209;139243;-64
2023/08/26 09:56:26;;;;;;;10.90;6.10;;;;;;;22.67;76.15;100195.54;111007;1211;97762;-65
2023/08/26 09:58:52;;;;;;;14.60;6.30;;;;;;;22.74;76.07;100201.78;110958;1211;138646;-64
2023/08/26 10:01:20;;;;;;;12.70;6.70;;;;;;;22.75;76.41;100197.25;110999;1209;97711;-63
2023/08/26 10:03:51;;;;;;;12.20;6.20;;;;;;;22.81;76.63;100197.07;111079;1211;97600;-63
2023/08/26 10:06:23;;;;;;;13.30;7.10;;;;;;;22.89;76.92;100189.32;110862;1208;139382;-64
2023/08/26 10:08:57;;;;;;;8.70;5.60;;;;;;;23.04;77.18;100190.21;111020;1211;102994;-64
2023/08/26 10:11:25;;;;;;;13.30;7.30;;;;;;;23.24;77.36;100180.64;110908;1209;138926;-64
2023/08/26 10:13:53;;;;;;;8.20;6.50;;;;;;;23.39;77.43;100176.09;111048;1209;99488;-64
2023/08/26 10:16:23;;;;;;;8.00;6.20;;;;;;;23.62;77.41;100175.56;110900;1209;138773;-64
2023/08/26 10:18:54;;;;;;;7.40;5.20;;;;;;;23.82;77.25;100159.38;111002;1207;97695;-64
2023/08/26 10:21:20;;;;;;;8.00;5.40;;;;;;;23.90;77.11;100156.84;111224;1208;102363;-65
2023/08/26 10:23:48;;;;;;;10.20;5.30;;;;;;;23.96;76.78;100162.00;111126;1208;139475;-64
2023/08/26 10:26:14;;;;;;;8.10;5.50;;;;;;;23.93;76.42;100163.98;111138;1208;98116;-64
2023/08/26 10:28:41;;;;;;;10.20;5.30;;;;;;;24.01;76.42;100162.61;111132;1206;140494;-65
2023/08/26 10:31:08;;;;;;;7.30;4.90;;;;;;;24.11;75.90;100153.99;111290;1209;99431;-64
2023/08/26 10:34:00;;;;;;;7.50;4.60;;;;;;;24.23;75.91;100151.20;111114;1209;96354;-64
2023/08/26 10:36:26;;;;;;;6.30;4.50;;;;;;;24.45;75.68;100150.16;110978;1208;138778;-64
2023/08/26 10:38:56;;;;;;;6.80;4.60;;;;;;;24.63;75.25;100148.21;111037;1206;97700;-63
2023/08/26 10:41:22;;;;;;;10.90;4.70;;;;;;;24.75;74.77;100159.49;111038;1208;138887;-64
2023/08/26 10:43:55;;;;;;;7.30;4.40;;;;;;;24.82;74.27;100155.32;111071;1211;97587;-64
2023/08/26 10:46:34;;;;;;;9.90;5.10;;;;;;;24.96;73.61;100164.50;111098;1209;139233;-64
2023/08/26 10:49:03;;;;;;;7.40;4.20;;;;;;;25.05;73.22;100164.69;111106;1210;99661;-64
2023/08/26 10:51:29;;;;;;;3.90;3.30;;;;;;;25.12;72.69;100164.52;111113;1206;96494;-64
2023/08/26 10:54:04;;;;;;;7.20;4.10;;;;;;;25.13;71.92;100162.22;111036;1208;138535;-64
2023/08/26 10:56:34;;;;;;;7.30;3.90;;;;;;;25.09;71.75;100158.25;110997;1210;103301;-64
2023/08/26 10:59:03;;;;;;;6.70;4.20;;;;;;;25.14;71.54;100154.33;110956;1208;139107;-64
2023/08/26 11:01:36;;;;;;;9.60;4.20;;;;;;;25.20;71.34;100150.39;111207;1211;99225;-64
2023/08/26 11:04:05;;;;;;;5.60;3.50;;;;;;;25.26;71.19;100155.56;111177;1208;97745;-64
2023/08/26 11:06:38;;;;;;;5.10;3.70;;;;;;;25.36;70.85;100161.90;111002;1211;139072;-63